sensor_id;sensor_type;location;lat;lon;timestamp;pressure;altitude;pressure_sealevel;temperature;humidity
44988;BME280;35735;52.226;21.254;2023-01-25T00:00:00;102439.47;;;2.38;100.00
44988;BME280;35735;52.226;21.254;2023-01-25T00:05:02;102441.03;;;2.35;100.00
44988;BME280;35735;52.226;21.254;2023-01-25T00:10:03;102444.00;;;2.39;100.00
44988;BME280;35735;52.226;21.254;2023-01-25T00:15:04;102444.91;;;2.40;100.00
44988;BME280;35735;52.226;21.254;2023-01-25T00:20:05;102454.03;;;2.30;100.00
44988;BME280;35735;52.226;21.254;2023-01-25T00:25:06;102440.44;;;2.26;100.00
44988;BME280;35735;52.226;21.254;2023-01-25T00:30:08;102434.91;;;2.22;100.00
44988;BME280;35735;52.226;21.254;2023-01-25T00:35:10;102431.19;;;2.20;100.00
44988;BME280;35735;52.226;21.254;2023-01-25T00:40:11;102430.59;;;2.25;100.00
44988;BME280;35735;52.226;21.254;2023-01-25T00:45:12;102434.16;;;2.25;100.00
44988;BME280;35735;52.226;21.254;2023-01-25T00:50:12;102423.50;;;2.25;100.00
44988;BME280;35735;52.226;21.254;2023-01-25T00:55:13;102412.84;;;2.25;100.00
44988;BME280;35735;52.226;21.254;2023-01-25T01:00:14;102398.16;;;2.32;100.00
44988;BME280;35735;52.226;21.254;2023-01-25T01:05:15;102402.59;;;2.31;100.00
44988;BME280;35735;52.226;21.254;2023-01-25T01:10:15;102404.94;;;2.27;100.00
44988;BME280;35735;52.226;21.254;2023-01-25T01:15:16;102403.63;;;2.20;100.00
44988;BME280;35735;52.226;21.254;2023-01-25T01:20:17;102403.44;;;2.03;100.00
44988;BME280;35735;52.226;21.254;2023-01-25T01:25:17;102404.38;;;2.04;100.00
44988;BME280;35735;52.226;21.254;2023-01-25T01:30:18;102405.81;;;1.99;100.00
44988;BME280;35735;52.226;21.254;2023-01-25T01:35:18;102399.75;;;2.01;100.00
44988;BME280;35735;52.226;21.254;2023-01-25T01:40:19;102407.16;;;1.92;100.00
44988;BME280;35735;52.226;21.254;2023-01-25T01:50:51;102397.81;;;1.85;100.00
44988;BME280;35735;52.226;21.254;2023-01-25T01:55:56;102383.25;;;1.80;100.00
44988;BME280;35735;52.226;21.254;2023-01-25T02:00:59;102388.88;;;1.72;100.00
44988;BME280;35735;52.226;21.254;2023-01-25T02:06:09;102383.75;;;1.61;100.00
44988;BME280;35735;52.226;21.254;2023-01-25T02:11:13;102384.19;;;1.67;100.00
44988;BME280;35735;52.226;21.254;2023-01-25T02:16:15;102378.22;;;1.58;100.00
44988;BME280;35735;52.226;21.254;2023-01-25T02:21:22;102376.41;;;1.57;100.00
44988;BME280;35735;52.226;21.254;2023-01-25T02:26:23;102363.19;;;1.59;100.00
44988;BME280;35735;52.226;21.254;2023-01-25T02:31:24;102351.22;;;1.52;100.00
44988;BME280;35735;52.226;21.254;2023-01-25T02:36:28;102362.88;;;1.54;100.00
44988;BME280;35735;52.226;21.254;2023-01-25T02:41:35;102361.22;;;1.56;100.00
44988;BME280;35735;52.226;21.254;2023-01-25T02:46:38;102358.06;;;1.62;100.00
44988;BME280;35735;52.226;21.254;2023-01-25T02:51:48;102356.44;;;1.64;100.00
44988;BME280;35735;52.226;21.254;2023-01-25T02:56:49;102345.16;;;1.68;100.00
44988;BME280;35735;52.226;21.254;2023-01-25T03:01:50;102346.28;;;1.58;100.00
44988;BME280;35735;52.226;21.254;2023-01-25T03:06:51;102342.81;;;1.59;100.00
44988;BME280;35735;52.226;21.254;2023-01-25T03:11:51;102332.66;;;1.54;100.00
44988;BME280;35735;52.226;21.254;2023-01-25T03:16:52;102319.88;;;1.48;100.00
44988;BME280;35735;52.226;21.254;2023-01-25T03:21:52;102305.66;;;1.47;100.00
44988;BME280;35735;52.226;21.254;2023-01-25T03:26:53;102313.84;;;1.37;100.00
44988;BME280;35735;52.226;21.254;2023-01-25T03:31:53;102302.47;;;1.40;100.00
44988;BME280;35735;52.226;21.254;2023-01-25T03:36:54;102289.03;;;1.38;100.00
44988;BME280;35735;52.226;21.254;2023-01-25T03:41:57;102295.69;;;1.32;100.00
44988;BME280;35735;52.226;21.254;2023-01-25T03:46:58;102277.69;;;1.27;100.00
44988;BME280;35735;52.226;21.254;2023-01-25T03:51:58;102310.09;;;1.22;100.00
44988;BME280;35735;52.226;21.254;2023-01-25T03:56:59;102301.00;;;1.18;100.00
44988;BME280;35735;52.226;21.254;2023-01-25T04:02:00;102305.53;;;1.19;100.00
44988;BME280;35735;52.226;21.254;2023-01-25T04:07:01;102289.66;;;1.21;100.00
44988;BME280;35735;52.226;21.254;2023-01-25T04:12:01;102282.47;;;1.20;100.00
44988;BME280;35735;52.226;21.254;2023-01-25T04:17:03;102272.16;;;1.11;100.00
44988;BME280;35735;52.226;21.254;2023-01-25T04:22:06;102272.75;;;1.07;100.00
44988;BME280;35735;52.226;21.254;2023-01-25T04:27:06;102277.69;;;1.14;100.00
44988;BME280;35735;52.226;21.254;2023-01-25T04:32:07;102293.22;;;1.08;100.00
44988;BME280;35735;52.226;21.254;2023-01-25T04:37:08;102277.69;;;1.14;100.00
44988;BME280;35735;52.226;21.254;2023-01-25T04:42:08;102276.03;;;1.16;100.00
44988;BME280;35735;52.226;21.254;2023-01-25T04:47:11;102261.50;;;1.11;100.00
44988;BME280;35735;52.226;21.254;2023-01-25T04:52:12;102279.03;;;1.21;100.00
44988;BME280;35735;52.226;21.254;2023-01-25T04:57:12;102266.03;;;1.25;100.00
44988;BME280;35735;52.226;21.254;2023-01-25T05:02:13;102264.69;;;1.19;100.00
44988;BME280;35735;52.226;21.254;2023-01-25T05:07:13;102255.97;;;1.08;100.00
44988;BME280;35735;52.226;21.254;2023-01-25T05:12:14;102257.63;;;1.06;100.00
44988;BME280;35735;52.226;21.254;2023-01-25T05:17:14;102261.09;;;1.05;100.00
44988;BME280;35735;52.226;21.254;2023-01-25T05:22:17;102256.97;;;0.97;100.00
44988;BME280;35735;52.226;21.254;2023-01-25T05:27:19;102254.84;;;1.04;100.00
44988;BME280;35735;52.226;21.254;2023-01-25T05:32:21;102253.00;;;1.03;100.00
44988;BME280;35735;52.226;21.254;2023-01-25T05:37:22;102245.12;;;1.05;100.00
44988;BME280;35735;52.226;21.254;2023-01-25T05:42:23;102248.41;;;1.01;100.00
44988;BME280;35735;52.226;21.254;2023-01-25T05:47:24;102249.00;;;0.97;100.00
44988;BME280;35735;52.226;21.254;2023-01-25T05:52:24;102256.38;;;0.87;100.00
44988;BME280;35735;52.226;21.254;2023-01-25T05:57:25;102254.69;;;0.76;100.00
44988;BME280;35735;52.226;21.254;2023-01-25T06:02:25;102248.16;;;0.71;100.00
44988;BME280;35735;52.226;21.254;2023-01-25T06:07:26;102248.91;;;0.57;100.00
44988;BME280;35735;52.226;21.254;2023-01-25T06:12:26;102225.41;;;0.49;100.00
44988;BME280;35735;52.226;21.254;2023-01-25T06:17:27;102228.84;;;0.48;100.00
44988;BME280;35735;52.226;21.254;2023-01-25T06:22:28;102229.56;;;0.46;100.00
44988;BME280;35735;52.226;21.254;2023-01-25T06:27:28;102242.53;;;0.41;100.00
44988;BME280;35735;52.226;21.254;2023-01-25T06:32:32;102245.53;;;0.46;100.00
44988;BME280;35735;52.226;21.254;2023-01-25T06:37:32;102240.66;;;0.52;100.00
44988;BME280;35735;52.226;21.254;2023-01-25T06:42:33;102245.62;;;0.47;100.00
44988;BME280;35735;52.226;21.254;2023-01-25T06:47:34;102235.81;;;0.46;100.00
44988;BME280;35735;52.226;21.254;2023-01-25T06:52:35;102236.53;;;0.44;100.00
44988;BME280;35735;52.226;21.254;2023-01-25T06:57:35;102233.87;;;0.44;100.00
44988;BME280;35735;52.226;21.254;2023-01-25T07:02:36;102214.97;;;0.52;100.00
44988;BME280;35735;52.226;21.254;2023-01-25T07:07:37;102200.88;;;0.53;100.00
44988;BME280;35735;52.226;21.254;2023-01-25T07:12:37;102204.13;;;0.49;100.00
44988;BME280;35735;52.226;21.254;2023-01-25T07:17:38;102193.81;;;0.41;100.00
44988;BME280;35735;52.226;21.254;2023-01-25T07:22:38;102201.00;;;0.30;100.00
44988;BME280;35735;52.226;21.254;2023-01-25T07:27:39;102195.06;;;0.21;100.00
44988;BME280;35735;52.226;21.254;2023-01-25T07:32:40;102196.88;;;0.22;100.00
44988;BME280;35735;52.226;21.254;2023-01-25T07:37:40;102203.63;;;0.16;100.00
44988;BME280;35735;52.226;21.254;2023-01-25T07:42:41;102199.94;;;0.14;100.00
44988;BME280;35735;52.226;21.254;2023-01-25T07:47:41;102202.97;;;0.07;100.00
44988;BME280;35735;52.226;21.254;2023-01-25T07:52:42;102204.16;;;-0.01;100.00
44988;BME280;35735;52.226;21.254;2023-01-25T07:57:43;102205.78;;;-0.03;100.00
44988;BME280;35735;52.226;21.254;2023-01-25T08:02:43;102200.94;;;-0.09;100.00
44988;BME280;35735;52.226;21.254;2023-01-25T08:07:44;102193.09;;;-0.07;100.00
44988;BME280;35735;52.226;21.254;2023-01-25T08:12:45;102186.37;;;-0.02;100.00
44988;BME280;35735;52.226;21.254;2023-01-25T08:17:46;102193.53;;;-0.01;100.00
44988;BME280;35735;52.226;21.254;2023-01-25T08:22:46;102198.63;;;-0.04;100.00
44988;BME280;35735;52.226;21.254;2023-01-25T08:27:47;102188.47;;;0.02;100.00
44988;BME280;35735;52.226;21.254;2023-01-25T08:32:47;102175.06;;;0.01;100.00
44988;BME280;35735;52.226;21.254;2023-01-25T08:37:48;102175.06;;;0.01;100.00
44988;BME280;35735;52.226;21.254;2023-01-25T08:42:49;102169.03;;;0.03;100.00
44988;BME280;35735;52.226;21.254;2023-01-25T08:47:49;102162.53;;;0.11;100.00
44988;BME280;35735;52.226;21.254;2023-01-25T08:52:50;102160.91;;;0.13;100.00
44988;BME280;35735;52.226;21.254;2023-01-25T08:57:51;102155.97;;;0.06;100.00
44988;BME280;35735;52.226;21.254;2023-01-25T09:02:51;102156.19;;;0.09;100.00
44988;BME280;35735;52.226;21.254;2023-01-25T09:07:52;102156.94;;;0.20;100.00
44988;BME280;35735;52.226;21.254;2023-01-25T09:12:52;102142.16;;;0.24;100.00
44988;BME280;35735;52.226;21.254;2023-01-25T09:17:55;102132.34;;;0.23;100.00
44988;BME280;35735;52.226;21.254;2023-01-25T09:22:55;102137.09;;;0.15;100.00
44988;BME280;35735;52.226;21.254;2023-01-25T09:27:56;102137.22;;;0.16;100.00
44988;BME280;35735;52.226;21.254;2023-01-25T09:32:57;102128.78;;;0.22;100.00
44988;BME280;35735;52.226;21.254;2023-01-25T09:37:57;102120.81;;;0.22;100.00
44988;BME280;35735;52.226;21.254;2023-01-25T09:43:22;102114.75;;;0.25;100.00
44988;BME280;35735;52.226;21.254;2023-01-25T09:48:46;102100.69;;;0.26;100.00
44988;BME280;35735;52.226;21.254;2023-01-25T09:53:55;102099.47;;;0.34;100.00
44988;BME280;35735;52.226;21.254;2023-01-25T09:58:59;102089.97;;;0.37;100.00
44988;BME280;35735;52.226;21.254;2023-01-25T10:04:24;102088.44;;;0.41;100.00
44988;BME280;35735;52.226;21.254;2023-01-25T10:09:46;102091.53;;;0.47;100.00
44988;BME280;35735;52.226;21.254;2023-01-25T10:14:58;102088.34;;;0.53;100.00
44988;BME280;35735;52.226;21.254;2023-01-25T10:20:14;102081.91;;;0.49;100.00
44988;BME280;35735;52.226;21.254;2023-01-25T10:31:01;102060.84;;;0.39;100.00
44988;BME280;35735;52.226;21.254;2023-01-25T10:36:18;102047.34;;;0.36;100.00
44988;BME280;35735;52.226;21.254;2023-01-25T10:46:34;102040.31;;;0.50;100.00
44988;BME280;35735;52.226;21.254;2023-01-25T10:51:37;102030.41;;;0.47;100.00
44988;BME280;35735;52.226;21.254;2023-01-25T10:56:38;102030.19;;;0.44;100.00
44988;BME280;35735;52.226;21.254;2023-01-25T11:01:38;102036.53;;;0.33;100.00
44988;BME280;35735;52.226;21.254;2023-01-25T11:06:46;102023.66;;;0.26;100.00
44988;BME280;35735;52.226;21.254;2023-01-25T11:12:02;102010.97;;;0.22;100.00
44988;BME280;35735;52.226;21.254;2023-01-25T11:17:28;102004.31;;;0.28;100.00
44988;BME280;35735;52.226;21.254;2023-01-25T11:22:30;101990.13;;;0.28;100.00
44988;BME280;35735;52.226;21.254;2023-01-25T11:27:30;101981.66;;;0.33;100.00
44988;BME280;35735;52.226;21.254;2023-01-25T11:32:31;101979.31;;;0.38;100.00
44988;BME280;35735;52.226;21.254;2023-01-25T11:37:57;101976.16;;;0.44;100.00
44988;BME280;35735;52.226;21.254;2023-01-25T11:43:49;101958.34;;;0.43;100.00
44988;BME280;35735;52.226;21.254;2023-01-25T11:49:40;101961.12;;;0.44;100.00
44988;BME280;35735;52.226;21.254;2023-01-25T11:54:55;101959.25;;;0.43;100.00
44988;BME280;35735;52.226;21.254;2023-01-25T12:11:32;101932.91;;;0.46;100.00
44988;BME280;35735;52.226;21.254;2023-01-25T12:28:11;101917.16;;;0.49;100.00
44988;BME280;35735;52.226;21.254;2023-01-25T12:33:20;101913.66;;;0.64;100.00
44988;BME280;35735;52.226;21.254;2023-01-25T12:38:55;101897.87;;;0.67;100.00
44988;BME280;35735;52.226;21.254;2023-01-25T12:49:56;101881.53;;;0.74;100.00
44988;BME280;35735;52.226;21.254;2023-01-25T12:55:03;101885.84;;;0.72;100.00
44988;BME280;35735;52.226;21.254;2023-01-25T13:00:21;101875.81;;;0.68;100.00
44988;BME280;35735;52.226;21.254;2023-01-25T13:11:22;101867.00;;;0.82;100.00
44988;BME280;35735;52.226;21.254;2023-01-25T13:16:35;101853.09;;;0.73;100.00
44988;BME280;35735;52.226;21.254;2023-01-25T13:21:42;101853.94;;;0.72;100.00
44988;BME280;35735;52.226;21.254;2023-01-25T13:31:53;101847.09;;;0.76;100.00
44988;BME280;35735;52.226;21.254;2023-01-25T13:36:54;101843.22;;;0.70;100.00
44988;BME280;35735;52.226;21.254;2023-01-25T13:42:25;101833.69;;;0.74;100.00
44988;BME280;35735;52.226;21.254;2023-01-25T13:47:28;101841.22;;;0.81;100.00
44988;BME280;35735;52.226;21.254;2023-01-25T13:52:31;101822.22;;;0.75;100.00
44988;BME280;35735;52.226;21.254;2023-01-25T13:57:32;101810.06;;;0.79;100.00
44988;BME280;35735;52.226;21.254;2023-01-25T14:02:33;101815.19;;;0.76;100.00
44988;BME280;35735;52.226;21.254;2023-01-25T14:07:38;101805.25;;;0.73;100.00
44988;BME280;35735;52.226;21.254;2023-01-25T14:12:40;101804.38;;;0.87;100.00
44988;BME280;35735;52.226;21.254;2023-01-25T14:17:42;101786.84;;;0.76;100.00
44988;BME280;35735;52.226;21.254;2023-01-25T14:22:49;101788.41;;;0.72;100.00
44988;BME280;35735;52.226;21.254;2023-01-25T14:27:52;101788.78;;;0.79;100.00
44988;BME280;35735;52.226;21.254;2023-01-25T14:32:56;101794.12;;;0.79;100.00
44988;BME280;35735;52.226;21.254;2023-01-25T14:37:58;101778.87;;;0.76;100.00
44988;BME280;35735;52.226;21.254;2023-01-25T14:42:59;101765.97;;;0.82;100.00
44988;BME280;35735;52.226;21.254;2023-01-25T14:48:00;101769.53;;;0.83;100.00
44988;BME280;35735;52.226;21.254;2023-01-25T14:53:18;101756.91;;;0.79;100.00
44988;BME280;35735;52.226;21.254;2023-01-25T14:58:22;101753.19;;;0.77;100.00
44988;BME280;35735;52.226;21.254;2023-01-25T15:03:24;101750.62;;;0.78;100.00
44988;BME280;35735;52.226;21.254;2023-01-25T15:08:27;101737.00;;;0.72;100.00
44988;BME280;35735;52.226;21.254;2023-01-25T15:13:30;101731.81;;;0.60;100.00
44988;BME280;35735;52.226;21.254;2023-01-25T15:18:52;101727.97;;;0.55;100.00
44988;BME280;35735;52.226;21.254;2023-01-25T15:23:55;101723.84;;;0.60;100.00
44988;BME280;35735;52.226;21.254;2023-01-25T15:28:59;101714.50;;;0.67;100.00
44988;BME280;35735;52.226;21.254;2023-01-25T15:34:24;101711.03;;;0.68;100.00
44988;BME280;35735;52.226;21.254;2023-01-25T15:39:27;101703.72;;;0.64;100.00
44988;BME280;35735;52.226;21.254;2023-01-25T15:44:27;101693.44;;;0.70;100.00
44988;BME280;35735;52.226;21.254;2023-01-25T15:49:30;101695.66;;;0.77;100.00
44988;BME280;35735;52.226;21.254;2023-01-25T15:54:31;101688.50;;;0.76;100.00
44988;BME280;35735;52.226;21.254;2023-01-25T15:59:31;101689.59;;;0.80;100.00
44988;BME280;35735;52.226;21.254;2023-01-25T16:04:32;101678.88;;;0.78;100.00
44988;BME280;35735;52.226;21.254;2023-01-25T16:09:33;101674.03;;;0.86;100.00
44988;BME280;35735;52.226;21.254;2023-01-25T16:14:33;101674.22;;;0.89;100.00
44988;BME280;35735;52.226;21.254;2023-01-25T16:19:34;101666.31;;;0.90;100.00
44988;BME280;35735;52.226;21.254;2023-01-25T16:24:34;101660.53;;;0.98;100.00
44988;BME280;35735;52.226;21.254;2023-01-25T16:29:35;101662.38;;;0.99;100.00
44988;BME280;35735;52.226;21.254;2023-01-25T16:34:35;101658.59;;;0.95;100.00
44988;BME280;35735;52.226;21.254;2023-01-25T16:39:36;101654.03;;;0.92;100.00
44988;BME280;35735;52.226;21.254;2023-01-25T16:44:37;101635.78;;;0.99;100.00
44988;BME280;35735;52.226;21.254;2023-01-25T16:49:38;101631.59;;;0.87;100.00
44988;BME280;35735;52.226;21.254;2023-01-25T16:54:38;101627.06;;;0.86;100.00
44988;BME280;35735;52.226;21.254;2023-01-25T16:59:39;101622.12;;;0.92;100.00
44988;BME280;35735;52.226;21.254;2023-01-25T17:04:40;101619.00;;;1.00;100.00
44988;BME280;35735;52.226;21.254;2023-01-25T17:09:40;101606.69;;;1.02;100.00
44988;BME280;35735;52.226;21.254;2023-01-25T17:14:41;101605.28;;;0.92;100.00
44988;BME280;35735;52.226;21.254;2023-01-25T17:19:41;101597.34;;;0.93;100.00
44988;BME280;35735;52.226;21.254;2023-01-25T17:24:42;101593.44;;;0.87;100.00
44988;BME280;35735;52.226;21.254;2023-01-25T17:29:43;101589.31;;;0.92;100.00
44988;BME280;35735;52.226;21.254;2023-01-25T17:34:44;101592.22;;;0.97;100.00
44988;BME280;35735;52.226;21.254;2023-01-25T17:39:44;101591.41;;;0.98;100.00
44988;BME280;35735;52.226;21.254;2023-01-25T17:44:45;101583.91;;;0.90;100.00
44988;BME280;35735;52.226;21.254;2023-01-25T17:49:45;101563.81;;;0.96;100.00
44988;BME280;35735;52.226;21.254;2023-01-25T17:54:48;101559.59;;;0.99;100.00
44988;BME280;35735;52.226;21.254;2023-01-25T17:59:48;101559.84;;;1.04;100.00
44988;BME280;35735;52.226;21.254;2023-01-25T18:04:49;101554.44;;;1.02;100.00
44988;BME280;35735;52.226;21.254;2023-01-25T18:09:50;101555.47;;;0.89;100.00
44988;BME280;35735;52.226;21.254;2023-01-25T18:14:51;101551.34;;;0.95;100.00
44988;BME280;35735;52.226;21.254;2023-01-25T18:19:51;101554.53;;;1.04;100.00
44988;BME280;35735;52.226;21.254;2023-01-25T18:24:52;101554.28;;;0.99;100.00
44988;BME280;35735;52.226;21.254;2023-01-25T18:29:58;101550.03;;;1.03;100.00
44988;BME280;35735;52.226;21.254;2023-01-25T18:35:03;101557.19;;;1.04;100.00
44988;BME280;35735;52.226;21.254;2023-01-25T18:40:04;101544.94;;;0.91;100.00
44988;BME280;35735;52.226;21.254;2023-01-25T18:45:06;101548.69;;;0.95;100.00
44988;BME280;35735;52.226;21.254;2023-01-25T18:50:08;101551.87;;;1.04;100.00
44988;BME280;35735;52.226;21.254;2023-01-25T18:55:10;101548.06;;;1.15;100.00
44988;BME280;35735;52.226;21.254;2023-01-25T19:00:11;101542.66;;;1.14;100.00
44988;BME280;35735;52.226;21.254;2023-01-25T19:05:11;101551.63;;;0.99;100.00
44988;BME280;35735;52.226;21.254;2023-01-25T19:10:12;101538.50;;;1.02;100.00
44988;BME280;35735;52.226;21.254;2023-01-25T19:15:13;101523.81;;;1.09;100.00
44988;BME280;35735;52.226;21.254;2023-01-25T19:20:13;101529.75;;;1.05;100.00
44988;BME280;35735;52.226;21.254;2023-01-25T19:25:14;101515.66;;;1.06;100.00
44988;BME280;35735;52.226;21.254;2023-01-25T19:30:15;101506.50;;;1.01;100.00
44988;BME280;35735;52.226;21.254;2023-01-25T19:35:16;101503.84;;;1.01;100.00
44988;BME280;35735;52.226;21.254;2023-01-25T19:40:16;101502.00;;;1.00;100.00
44988;BME280;35735;52.226;21.254;2023-01-25T19:45:17;101488.97;;;1.04;100.00
44988;BME280;35735;52.226;21.254;2023-01-25T19:50:18;101485.63;;;1.08;100.00
44988;BME280;35735;52.226;21.254;2023-01-25T19:55:18;101480.31;;;1.08;100.00
44988;BME280;35735;52.226;21.254;2023-01-25T20:00:19;101480.16;;;1.05;100.00
44988;BME280;35735;52.226;21.254;2023-01-25T20:05:19;101464.94;;;1.03;100.00
44988;BME280;35735;52.226;21.254;2023-01-25T20:10:20;101465.13;;;1.06;100.00
44988;BME280;35735;52.226;21.254;2023-01-25T20:15:23;101457.78;;;1.02;100.00
44988;BME280;35735;52.226;21.254;2023-01-25T20:20:24;101449.16;;;1.06;100.00
44988;BME280;35735;52.226;21.254;2023-01-25T20:25:24;101445.28;;;1.16;100.00
44988;BME280;35735;52.226;21.254;2023-01-25T20:30:25;101435.53;;;1.16;100.00
44988;BME280;35735;52.226;21.254;2023-01-25T20:35:26;101433.69;;;1.15;100.00
44988;BME280;35735;52.226;21.254;2023-01-25T20:40:26;101439.00;;;1.15;100.00
44988;BME280;35735;52.226;21.254;2023-01-25T20:45:30;101435.97;;;1.07;100.00
44988;BME280;35735;52.226;21.254;2023-01-25T20:50:31;101420.75;;;1.05;100.00
44988;BME280;35735;52.226;21.254;2023-01-25T20:55:32;101420.56;;;1.02;100.00
44988;BME280;35735;52.226;21.254;2023-01-25T21:00:32;101424.81;;;0.98;100.00
44988;BME280;35735;52.226;21.254;2023-01-25T21:05:33;101423.56;;;0.91;100.00
44988;BME280;35735;52.226;21.254;2023-01-25T21:10:36;101424.06;;;1.01;100.00
44988;BME280;35735;52.226;21.254;2023-01-25T21:15:36;101403.44;;;1.13;100.00
44988;BME280;35735;52.226;21.254;2023-01-25T21:20:37;101417.91;;;1.18;100.00
44988;BME280;35735;52.226;21.254;2023-01-25T21:25:38;101409.63;;;1.12;100.00
44988;BME280;35735;52.226;21.254;2023-01-25T21:30:38;101412.13;;;1.09;100.00
44988;BME280;35735;52.226;21.254;2023-01-25T21:35:39;101400.72;;;1.11;100.00
44988;BME280;35735;52.226;21.254;2023-01-25T21:40:42;101395.38;;;1.11;100.00
44988;BME280;35735;52.226;21.254;2023-01-25T21:45:43;101396.31;;;1.12;100.00
44988;BME280;35735;52.226;21.254;2023-01-25T21:50:43;101390.66;;;1.06;100.00
44988;BME280;35735;52.226;21.254;2023-01-25T21:55:44;101408.50;;;1.08;100.00
44988;BME280;35735;52.226;21.254;2023-01-25T22:00:44;101406.37;;;1.01;100.00
44988;BME280;35735;52.226;21.254;2023-01-25T22:05:52;101398.12;;;0.97;100.00
44988;BME280;35735;52.226;21.254;2023-01-25T22:11:03;101400.63;;;0.93;100.00
44988;BME280;35735;52.226;21.254;2023-01-25T22:16:06;101395.81;;;0.86;100.00
44988;BME280;35735;52.226;21.254;2023-01-25T22:21:16;101396.81;;;1.05;100.00
44988;BME280;35735;52.226;21.254;2023-01-25T22:26:22;101386.25;;;1.06;100.00
44988;BME280;35735;52.226;21.254;2023-01-25T22:31:25;101379.87;;;1.03;100.00
44988;BME280;35735;52.226;21.254;2023-01-25T22:36:29;101374.88;;;1.09;100.00
44988;BME280;35735;52.226;21.254;2023-01-25T22:41:35;101369.75;;;0.96;100.00
44988;BME280;35735;52.226;21.254;2023-01-25T22:46:36;101372.22;;;0.92;100.00
44988;BME280;35735;52.226;21.254;2023-01-25T22:51:37;101354.94;;;1.01;100.00
44988;BME280;35735;52.226;21.254;2023-01-25T22:56:37;101349.63;;;1.01;100.00
44988;BME280;35735;52.226;21.254;2023-01-25T23:01:38;101345.22;;;1.01;100.00
44988;BME280;35735;52.226;21.254;2023-01-25T23:06:39;101338.81;;;0.98;100.00
44988;BME280;35735;52.226;21.254;2023-01-25T23:11:39;101337.16;;;1.00;100.00
44988;BME280;35735;52.226;21.254;2023-01-25T23:16:41;101331.66;;;0.97;100.00
44988;BME280;35735;52.226;21.254;2023-01-25T23:21:42;101325.97;;;0.89;100.00
44988;BME280;35735;52.226;21.254;2023-01-25T23:26:43;101312.06;;;0.95;100.00
44988;BME280;35735;52.226;21.254;2023-01-25T23:31:43;101310.12;;;1.08;100.00
44988;BME280;35735;52.226;21.254;2023-01-25T23:36:44;101299.75;;;1.13;100.00
44988;BME280;35735;52.226;21.254;2023-01-25T23:41:44;101296.50;;;1.19;100.00
44988;BME280;35735;52.226;21.254;2023-01-25T23:46:45;101288.56;;;1.20;100.00
44988;BME280;35735;52.226;21.254;2023-01-25T23:51:45;101276.28;;;1.22;100.00
44988;BME280;35735;52.226;21.254;2023-01-25T23:56:46;101270.25;;;1.08;100.00
